createdAt,value
2023-05-20T00:02:14.667Z,96268.97
2023-05-20T00:04:43.965Z,96269.91
2023-05-20T00:07:12.391Z,96260.44
2023-05-20T00:09:40.848Z,96270.34
2023-05-20T00:12:09.503Z,96265.44
2023-05-20T00:14:38.042Z,96270.63
2023-05-20T00:17:07.976Z,96273.84
2023-05-20T00:19:36.394Z,96271.75
2023-05-20T00:22:04.887Z,96269.66
2023-05-20T00:24:33.246Z,96258.22
2023-05-20T00:27:02.737Z,96257.00
2023-05-20T00:29:31.181Z,96262.31
2023-05-20T00:32:00.516Z,96257.41
2023-05-20T00:34:30.270Z,96255.47
2023-05-20T00:36:59.925Z,96257.47
2023-05-20T00:39:29.703Z,96255.47
2023-05-20T00:42:00.473Z,96257.75
2023-05-20T00:44:28.905Z,96264.19
2023-05-20T00:46:58.102Z,96251.00
2023-05-20T00:49:26.631Z,96250.56
2023-05-20T00:51:56.629Z,96251.94
2023-05-20T00:54:25.070Z,96243.16
2023-05-20T00:56:53.920Z,96247.44
2023-05-20T00:59:22.355Z,96258.34
2023-05-20T01:01:50.944Z,96260.63
2023-05-20T01:04:19.516Z,96263.03
2023-05-20T01:06:48.049Z,96249.47
2023-05-20T01:09:17.835Z,96240.84
2023-05-20T01:11:53.007Z,96238.38
2023-05-20T01:14:24.553Z,96240.03
2023-05-20T01:16:54.933Z,96246.81
2023-05-20T01:19:30.162Z,96241.88
2023-05-20T01:22:01.346Z,96246.34
2023-05-20T01:24:31.143Z,96234.75
2023-05-20T01:27:00.877Z,96239.88
2023-05-20T01:29:29.294Z,96243.16
2023-05-20T01:32:01.133Z,96232.72
2023-05-20T01:34:29.814Z,96232.25
2023-05-20T01:37:00.956Z,96235.72
2023-05-20T01:39:31.940Z,96237.41
2023-05-20T01:42:02.830Z,96228.97
2023-05-20T01:44:31.662Z,96235.28
2023-05-20T01:47:01.730Z,96238.31
2023-05-20T01:49:30.441Z,96240.06
2023-05-20T01:52:02.411Z,96238.50
2023-05-20T01:54:32.376Z,96236.41
2023-05-20T01:57:01.474Z,96241.88
2023-05-20T01:59:30.003Z,96239.16
2023-05-20T02:02:01.799Z,96248.97
2023-05-20T02:04:30.478Z,96247.13
2023-05-20T02:07:00.207Z,96234.50
2023-05-20T02:09:29.254Z,96240.25
2023-05-20T02:11:59.871Z,96231.56
2023-05-20T02:14:28.276Z,96231.38
2023-05-20T02:17:04.519Z,96224.59
2023-05-20T02:19:32.949Z,96224.59
2023-05-20T02:22:01.592Z,96220.03
2023-05-20T02:24:30.016Z,96216.09
2023-05-20T02:27:01.792Z,96219.47
2023-05-20T02:29:30.325Z,96219.56
2023-05-20T02:32:01.102Z,96219.28
2023-05-20T02:34:30.441Z,96223.66
2023-05-20T02:37:00.062Z,96227.13
2023-05-20T02:39:29.521Z,96224.91
2023-05-20T02:42:00.439Z,96226.34
2023-05-20T02:44:28.795Z,96227.31
2023-05-20T02:46:57.360Z,96220.41
2023-05-20T02:49:25.749Z,96224.84
2023-05-20T02:51:54.143Z,96224.69
2023-05-20T02:54:22.751Z,96225.97
2023-05-20T02:56:51.137Z,96231.59
2023-05-20T02:59:20.874Z,96216.50
2023-05-20T03:01:49.505Z,96218.16
2023-05-20T03:04:19.277Z,96221.06
2023-05-20T03:06:47.829Z,96224.56
2023-05-20T03:09:16.469Z,96231.41
2023-05-20T03:11:44.869Z,96221.69
2023-05-20T03:14:21.483Z,96215.59
2023-05-20T03:16:49.867Z,96215.34
2023-05-20T03:19:18.240Z,96212.88
2023-05-20T03:21:46.664Z,96210.31
2023-05-20T03:24:15.060Z,96210.59
2023-05-20T03:26:43.936Z,96217.91
2023-05-20T03:29:13.805Z,96220.81
2023-05-20T03:31:43.652Z,96223.22
2023-05-20T03:34:12.109Z,96234.13
2023-05-20T03:36:40.603Z,96228.75
2023-05-20T03:39:08.998Z,96222.28
2023-05-20T03:41:38.020Z,96228.03
2023-05-20T03:44:06.712Z,96232.78
2023-05-20T03:46:35.145Z,96223.84
2023-05-20T03:49:05.872Z,96233.66
2023-05-20T03:51:34.351Z,96235.81
2023-05-20T03:54:03.220Z,96237.19
2023-05-20T03:56:31.630Z,96236.53
2023-05-20T03:59:01.975Z,96226.84
2023-05-20T04:01:30.473Z,96227.63
2023-05-20T04:03:58.865Z,96236.97
2023-05-20T04:06:28.666Z,96240.56
2023-05-20T04:08:57.175Z,96244.16
2023-05-20T04:11:25.947Z,96240.94
2023-05-20T04:13:54.785Z,96242.50
2023-05-20T04:16:23.184Z,96240.47
2023-05-20T04:18:52.644Z,96242.78
2023-05-20T04:21:21.086Z,96244.72
2023-05-20T04:23:50.817Z,96236.94
2023-05-20T04:26:19.233Z,96242.06
2023-05-20T04:28:49.726Z,96246.38
2023-05-20T04:31:18.643Z,96240.50
2023-05-20T04:33:47.188Z,96240.69
2023-05-20T04:36:16.841Z,96243.81
2023-05-20T04:38:45.509Z,96246.00
2023-05-20T04:41:16.011Z,96233.56
2023-05-20T04:43:45.849Z,96244.03
2023-05-20T04:46:14.299Z,96244.88
2023-05-20T04:48:43.877Z,96234.53
2023-05-20T04:51:12.423Z,96240.44
2023-05-20T04:53:40.850Z,96241.78
2023-05-20T04:56:09.317Z,96246.19
2023-05-20T04:58:39.666Z,96237.31
2023-05-20T05:01:08.169Z,96239.22
2023-05-20T05:03:36.978Z,96236.69
2023-05-20T05:06:05.466Z,96225.97
2023-05-20T05:08:33.872Z,96230.72
2023-05-20T05:11:06.232Z,96228.69
2023-05-20T05:13:34.702Z,96227.53
2023-05-20T05:16:05.597Z,96220.66
2023-05-20T05:18:34.042Z,96229.88
2023-05-20T05:21:04.636Z,96229.31
2023-05-20T05:23:33.192Z,96224.00
2023-05-20T05:26:04.874Z,96223.66
2023-05-20T05:28:33.369Z,96225.09
2023-05-20T05:31:03.669Z,96224.72
2023-05-20T05:33:33.488Z,96216.81
2023-05-20T05:36:04.268Z,96224.84
2023-05-20T05:38:32.673Z,96224.31
2023-05-20T05:41:01.882Z,96229.22
2023-05-20T05:43:30.348Z,96221.34
2023-05-20T05:45:58.739Z,96218.69
2023-05-20T05:48:27.352Z,96221.97
2023-05-20T05:50:57.154Z,96219.22
2023-05-20T05:53:25.742Z,96219.09
2023-05-20T05:55:54.180Z,96215.31
2023-05-20T05:58:22.825Z,96217.81
2023-05-20T06:00:53.002Z,96217.09
2023-05-20T06:03:21.547Z,96216.69
2023-05-20T06:05:50.136Z,96218.34
2023-05-20T06:08:19.912Z,96219.19
2023-05-20T06:10:50.034Z,96214.78
2023-05-20T06:13:19.182Z,96210.47
2023-05-20T06:15:51.235Z,96206.97
2023-05-20T06:18:19.830Z,96204.13
2023-05-20T06:20:48.262Z,96215.41
2023-05-20T06:23:16.688Z,96214.41
2023-05-20T06:25:46.459Z,96197.41
2023-05-20T06:28:14.844Z,96198.66
2023-05-20T06:30:43.600Z,96195.63
2023-05-20T06:33:12.029Z,96198.66
2023-05-20T06:35:40.648Z,96196.44
2023-05-20T06:38:09.150Z,96208.78
2023-05-20T06:40:37.770Z,96200.84
2023-05-20T06:43:07.540Z,96201.06
2023-05-20T06:45:36.150Z,96202.31
2023-05-20T06:48:04.960Z,96198.47
2023-05-20T06:50:33.339Z,96202.75
2023-05-20T06:53:03.388Z,96196.63
2023-05-20T06:55:32.034Z,96206.66
2023-05-20T06:58:00.552Z,96217.28
2023-05-20T07:00:31.210Z,96208.09
2023-05-20T07:02:59.676Z,96218.34
2023-05-20T07:05:28.988Z,96209.78
2023-05-20T07:07:57.483Z,96200.38
2023-05-20T07:10:26.285Z,96199.19
2023-05-20T07:12:54.731Z,96202.47
2023-05-20T07:15:23.131Z,96209.41
2023-05-20T07:17:53.258Z,96197.97
2023-05-20T07:20:21.904Z,96198.88
2023-05-20T07:23:00.979Z,96204.19
2023-05-20T07:25:29.377Z,96202.78
2023-05-20T07:27:58.062Z,96193.19
2023-05-20T07:30:26.694Z,96190.09
2023-05-20T07:32:56.840Z,96193.63
2023-05-20T07:35:25.654Z,96187.09
2023-05-20T07:37:54.185Z,96184.06
2023-05-20T07:40:23.126Z,96176.50
2023-05-20T07:42:51.531Z,96168.53
2023-05-20T07:45:20.033Z,96164.00
2023-05-20T07:47:48.485Z,96159.28
2023-05-20T07:50:18.310Z,96160.72
2023-05-20T07:52:55.924Z,96167.09
2023-05-20T07:55:25.354Z,96162.56
2023-05-20T07:57:53.838Z,96167.75
2023-05-20T08:00:22.371Z,96166.34
2023-05-20T08:02:50.887Z,96158.56
2023-05-20T08:05:22.750Z,96156.94
2023-05-20T08:07:51.239Z,96154.06
2023-05-20T08:10:19.943Z,96149.97
2023-05-20T08:12:51.776Z,96155.31
2023-05-20T08:15:20.335Z,96151.97
2023-05-20T08:17:48.715Z,96154.44
2023-05-20T08:20:17.166Z,96152.56
2023-05-20T08:22:47.438Z,96145.34
2023-05-20T08:25:16.182Z,96157.22
2023-05-20T08:27:44.818Z,96165.22
2023-05-20T08:30:13.683Z,96157.19
2023-05-20T08:32:42.119Z,96156.78
2023-05-20T08:35:11.331Z,96153.66
2023-05-20T08:37:39.701Z,96144.38
2023-05-20T08:40:11.858Z,96137.41
2023-05-20T08:42:44.359Z,96136.94
2023-05-20T08:45:13.979Z,96141.06
2023-05-20T08:47:43.990Z,96143.53
2023-05-20T08:50:14.282Z,96142.06
2023-05-20T08:52:45.373Z,96145.09
2023-05-20T08:55:22.823Z,96139.88
2023-05-20T08:57:51.634Z,96152.97
2023-05-20T09:00:20.894Z,96141.66
2023-05-20T09:02:49.490Z,96151.31
2023-05-20T09:05:18.331Z,96135.72
2023-05-20T09:07:46.925Z,96141.66
2023-05-20T09:10:16.928Z,96134.34
2023-05-20T09:12:46.930Z,96138.13
2023-05-20T09:15:15.388Z,96139.00
2023-05-20T09:17:43.844Z,96139.88
2023-05-20T09:20:13.077Z,96131.56
2023-05-20T09:22:41.635Z,96128.81
2023-05-20T09:25:12.414Z,96132.03
2023-05-20T09:27:42.612Z,96121.41
2023-05-20T09:30:12.976Z,96122.06
2023-05-20T09:32:41.803Z,96118.97
2023-05-20T09:35:14.056Z,96127.19
2023-05-20T09:37:44.248Z,96120.53
2023-05-20T09:40:15.401Z,96124.00
2023-05-20T09:42:54.028Z,96123.66
2023-05-20T09:45:25.257Z,96118.59
2023-05-20T09:47:56.462Z,96113.13
2023-05-20T09:50:26.019Z,96110.50
2023-05-20T09:52:55.717Z,96099.94
2023-05-20T09:55:26.170Z,96101.59
2023-05-20T09:57:57.325Z,96100.88
2023-05-20T10:00:26.033Z,96097.28
2023-05-20T10:02:55.053Z,96087.63
2023-05-20T10:05:28.622Z,96079.09
2023-05-20T10:08:33.164Z,96083.22
2023-05-20T10:11:11.887Z,96079.00
2023-05-20T10:13:53.575Z,96072.31
2023-05-20T10:16:35.500Z,96072.97
2023-05-20T10:19:21.526Z,96070.19
2023-05-20T10:21:58.521Z,96065.66
2023-05-20T10:24:38.062Z,96062.13
2023-05-20T10:27:12.858Z,96063.97
2023-05-20T10:32:28.619Z,96051.97
2023-05-20T10:35:02.080Z,96046.88
2023-05-20T10:37:33.111Z,96046.34
2023-05-20T10:40:07.981Z,96052.00
2023-05-20T10:42:36.410Z,96058.09
2023-05-20T10:45:08.115Z,96052.00
2023-05-20T10:47:36.869Z,96047.06
2023-05-20T10:50:07.868Z,96054.25
2023-05-20T10:52:38.368Z,96050.66
2023-05-20T10:55:08.515Z,96042.63
2023-05-20T10:57:37.713Z,96045.84
2023-05-20T11:00:11.790Z,96044.94
2023-05-20T11:02:42.082Z,96038.97
2023-05-20T11:05:12.546Z,96043.06
2023-05-20T11:07:41.273Z,96047.16
2023-05-20T11:10:11.046Z,96039.31
2023-05-20T11:12:40.717Z,96040.69
2023-05-20T11:15:13.065Z,96032.75
2023-05-20T11:17:53.670Z,96022.16
2023-05-20T11:20:22.378Z,96026.91
2023-05-20T11:22:51.394Z,96022.00
2023-05-20T11:25:20.713Z,96022.38
2023-05-20T11:27:59.378Z,96015.25
2023-05-20T11:30:29.293Z,96013.41
2023-05-20T11:32:59.482Z,96012.91
2023-05-20T11:35:30.590Z,96000.00
2023-05-20T11:38:02.667Z,96000.50
2023-05-20T11:40:46.399Z,95995.41
2023-05-20T11:43:19.290Z,95990.69
2023-05-20T11:45:55.808Z,95983.50
2023-05-20T11:48:25.268Z,95980.16
2023-05-20T11:50:55.443Z,95971.91
2023-05-20T11:53:25.410Z,95967.72
2023-05-20T11:55:56.499Z,95963.84
2023-05-20T11:58:26.315Z,95976.59
2023-05-20T12:01:05.175Z,95968.91
2023-05-20T12:03:42.352Z,95965.19
2023-05-20T12:06:13.265Z,95963.66
2023-05-20T12:08:41.655Z,95960.72
2023-05-20T12:11:10.143Z,95958.00
2023-05-20T12:13:38.988Z,95951.84
2023-05-20T12:16:09.960Z,95947.03
2023-05-20T12:18:38.790Z,95938.72
2023-05-20T12:21:08.338Z,95943.88
2023-05-20T12:23:36.741Z,95946.41
2023-05-20T12:26:07.072Z,95944.78
2023-05-20T12:28:35.480Z,95944.25
2023-05-20T12:31:04.664Z,95941.56
2023-05-20T12:33:34.471Z,95942.38
2023-05-20T12:36:02.992Z,95942.09
2023-05-20T12:38:31.467Z,95946.41
2023-05-20T12:40:59.872Z,95945.63
2023-05-20T12:43:28.246Z,95938.56
2023-05-20T12:45:57.051Z,95937.47
2023-05-20T12:48:25.486Z,95933.13
2023-05-20T12:50:55.194Z,95928.25
2023-05-20T12:53:23.646Z,95927.66
2023-05-20T12:55:52.040Z,95924.94
2023-05-20T12:58:20.729Z,95926.56
2023-05-20T13:00:49.256Z,95914.94
2023-05-20T13:03:18.071Z,95909.25
2023-05-20T13:05:46.716Z,95915.22
2023-05-20T13:08:16.446Z,95908.72
2023-05-20T13:10:44.806Z,95907.13
2023-05-20T13:13:13.920Z,95907.44
2023-05-20T13:15:42.359Z,95912.88
2023-05-20T13:18:11.142Z,95914.75
2023-05-20T13:20:39.571Z,95911.50
2023-05-20T13:23:10.764Z,95914.75
2023-05-20T13:25:40.996Z,95909.34
2023-05-20T13:28:10.331Z,95905.81
2023-05-20T13:30:39.124Z,95896.91
2023-05-20T13:33:09.920Z,95903.66
2023-05-20T13:35:38.420Z,95903.94
2023-05-20T13:38:10.185Z,95899.88
2023-05-20T13:40:39.917Z,95892.81
2023-05-20T13:43:09.699Z,95884.19
2023-05-20T13:45:38.093Z,95884.72
2023-05-20T13:48:09.481Z,95880.38
2023-05-20T13:50:37.864Z,95877.69
2023-05-20T13:53:07.472Z,95873.91
2023-05-20T13:55:36.511Z,95868.47
2023-05-20T13:58:11.904Z,95873.63
2023-05-20T14:00:40.632Z,95876.03
2023-05-20T14:03:10.555Z,95860.63
2023-05-20T14:05:39.091Z,95861.97
2023-05-20T14:08:09.837Z,95861.97
2023-05-20T14:10:38.219Z,95862.22
2023-05-20T14:13:08.963Z,95861.09
2023-05-20T14:15:38.955Z,95858.06
2023-05-20T14:18:09.813Z,95849.84
2023-05-20T14:20:38.284Z,95851.13
2023-05-20T14:23:06.674Z,95842.56
2023-05-20T14:25:35.219Z,95843.88
2023-05-20T14:28:03.925Z,95835.38
2023-05-20T14:30:32.408Z,95831.00
2023-05-20T14:33:02.271Z,95833.69
2023-05-20T14:35:30.799Z,95827.69
2023-05-20T14:37:59.235Z,95828.19
2023-05-20T14:40:27.877Z,95827.72
2023-05-20T14:42:56.320Z,95832.16
2023-05-20T14:45:24.785Z,95833.06
2023-05-20T14:47:59.445Z,95834.00
2023-05-20T14:50:29.264Z,95822.72
2023-05-20T14:52:57.663Z,95835.00
2023-05-20T14:55:26.065Z,95823.63
2023-05-20T14:57:54.465Z,95824.69
2023-05-20T15:00:23.108Z,95826.00
2023-05-20T15:02:51.610Z,95823.56
2023-05-20T15:05:20.125Z,95826.00
2023-05-20T15:07:49.941Z,95816.72
2023-05-20T15:10:18.397Z,95820.47
2023-05-20T15:12:46.829Z,95823.16
2023-05-20T15:15:15.587Z,95824.13
2023-05-20T15:17:44.035Z,95829.16
2023-05-20T15:20:13.302Z,95818.22
2023-05-20T15:22:43.968Z,95831.72
2023-05-20T15:25:13.793Z,95836.34
2023-05-20T15:27:42.448Z,95836.03
2023-05-20T15:30:11.620Z,95838.44
2023-05-20T15:32:41.311Z,95840.44
2023-05-20T15:35:11.076Z,95835.38
2023-05-20T15:37:39.457Z,95834.34
2023-05-20T15:40:10.462Z,95830.56
2023-05-20T15:42:40.961Z,95844.94
2023-05-20T15:45:10.941Z,95844.44
2023-05-20T15:47:40.840Z,95848.00
2023-05-20T15:50:12.267Z,95839.88
2023-05-20T15:52:40.887Z,95852.13
2023-05-20T15:55:11.739Z,95851.59
2023-05-20T15:57:41.505Z,95851.94
2023-05-20T16:00:11.769Z,95851.94
2023-05-20T16:02:41.398Z,95852.81
2023-05-20T16:05:11.436Z,95849.84
2023-05-20T16:07:42.541Z,95856.94
2023-05-20T16:10:11.771Z,95849.59
2023-05-20T16:12:41.597Z,95845.81
2023-05-20T16:15:11.559Z,95838.50
2023-05-20T16:17:40.517Z,95841.25
2023-05-20T16:20:11.028Z,95835.31
2023-05-20T16:22:39.421Z,95844.84
2023-05-20T16:25:09.364Z,95845.16
2023-05-20T16:27:38.248Z,95839.75
2023-05-20T16:30:12.159Z,95846.78
2023-05-20T16:32:41.079Z,95843.00
2023-05-20T16:35:11.638Z,95846.00
2023-05-20T16:37:40.529Z,95847.38
2023-05-20T16:40:11.245Z,95850.38
2023-05-20T16:42:40.610Z,95857.13
2023-05-20T16:45:13.493Z,95849.84
2023-05-20T16:47:41.965Z,95863.06
2023-05-20T16:50:11.610Z,95858.44
2023-05-20T16:52:40.015Z,95869.25
2023-05-20T16:55:10.511Z,95867.59
2023-05-20T16:57:39.229Z,95865.44
2023-05-20T17:00:10.303Z,95864.06
2023-05-20T17:02:40.036Z,95872.41
2023-05-20T17:05:09.767Z,95870.22
2023-05-20T17:07:39.394Z,95869.94
2023-05-20T17:10:08.848Z,95879.09
2023-05-20T17:12:44.513Z,95877.41
2023-05-20T17:15:12.894Z,95872.78
2023-05-20T17:17:42.697Z,95866.28
2023-05-20T17:20:12.635Z,95879.19
2023-05-20T17:22:41.117Z,95888.34
2023-05-20T17:25:10.819Z,95884.00
2023-05-20T17:27:43.504Z,95889.34
2023-05-20T17:30:12.857Z,95882.31
2023-05-20T17:32:42.709Z,95886.84
2023-05-20T17:35:12.712Z,95887.06
2023-05-20T17:37:41.395Z,95897.84
2023-05-20T17:40:12.366Z,95897.22
2023-05-20T17:42:40.842Z,95906.09
2023-05-20T17:45:12.609Z,95906.03
2023-05-20T17:47:42.479Z,95903.28
2023-05-20T17:50:14.631Z,95908.66
2023-05-20T17:52:44.927Z,95907.50
2023-05-20T17:55:14.550Z,95908.53
2023-05-20T17:57:43.004Z,95911.16
2023-05-20T18:00:13.474Z,95908.41
2023-05-20T18:02:47.227Z,95908.38
2023-05-20T18:05:16.902Z,95916.41
2023-05-20T18:07:45.580Z,95912.06
2023-05-20T18:10:14.297Z,95925.47
2023-05-20T18:12:43.023Z,95916.25
2023-05-20T18:15:13.937Z,95920.53
2023-05-20T18:17:44.824Z,95917.75
2023-05-20T18:20:14.464Z,95913.38
2023-05-20T18:22:45.334Z,95921.41
2023-05-20T18:25:21.007Z,95916.19
2023-05-20T18:27:49.424Z,95916.97
2023-05-20T18:30:17.941Z,95921.22
2023-05-20T18:32:47.661Z,95921.97
2023-05-20T18:35:16.636Z,95919.47
2023-05-20T18:37:45.026Z,95918.59
2023-05-20T18:40:16.542Z,95926.59
2023-05-20T18:42:45.109Z,95922.22
2023-05-20T18:45:13.755Z,95915.94
2023-05-20T18:47:42.304Z,95915.63
2023-05-20T18:50:15.403Z,95911.56
2023-05-20T18:52:53.828Z,95916.88
2023-05-20T18:55:22.210Z,95917.38
2023-05-20T18:57:50.818Z,95911.66
2023-05-20T19:00:19.590Z,95913.44
2023-05-20T19:02:48.031Z,95921.44
2023-05-20T19:05:18.003Z,95916.00
2023-05-20T19:07:46.786Z,95918.38
2023-05-20T19:10:15.575Z,95917.25
2023-05-20T19:12:44.628Z,95929.28
2023-05-20T19:15:13.707Z,95929.78
2023-05-20T19:17:42.304Z,95926.44
2023-05-20T19:20:12.064Z,95929.88
2023-05-20T19:22:42.063Z,95935.97
2023-05-20T19:25:13.365Z,95937.75
2023-05-20T19:27:42.033Z,95939.06
2023-05-20T19:30:12.325Z,95939.59
2023-05-20T19:32:41.015Z,95945.44
2023-05-20T19:35:10.202Z,95943.22
2023-05-20T19:37:38.608Z,95943.72
2023-05-20T19:40:09.912Z,95946.09
2023-05-20T19:42:38.340Z,95947.41
2023-05-20T19:45:07.889Z,95952.44
2023-05-20T19:47:37.512Z,95952.09
2023-05-20T19:50:06.815Z,95958.78
2023-05-20T19:52:35.387Z,95961.72
2023-05-20T19:55:03.893Z,95963.78
2023-05-20T19:57:33.663Z,95964.81
2023-05-20T20:00:15.504Z,95951.88
2023-05-20T20:02:43.951Z,95964.75
2023-05-20T20:05:13.885Z,95964.19
2023-05-20T20:07:42.448Z,95960.09
2023-05-20T20:10:12.800Z,95956.25
2023-05-20T20:12:42.662Z,95958.59
2023-05-20T20:15:14.560Z,95952.06
2023-05-20T20:17:45.446Z,95957.69
2023-05-20T20:20:15.381Z,95955.50
2023-05-20T20:22:43.824Z,95965.91
2023-05-20T20:25:14.025Z,95965.31
2023-05-20T20:27:44.893Z,95964.19
2023-05-20T20:30:15.060Z,95971.31
2023-05-20T20:32:43.591Z,95963.88
2023-05-20T20:35:12.972Z,95970.09
2023-05-20T20:37:41.433Z,95974.75
2023-05-20T20:40:13.734Z,95969.19
2023-05-20T20:42:54.695Z,95967.88
2023-05-20T20:45:23.702Z,95977.91
2023-05-20T20:47:54.797Z,95967.31
2023-05-20T20:50:23.341Z,95980.16
2023-05-20T20:52:51.755Z,95972.31
2023-05-20T20:55:20.249Z,95973.97
2023-05-20T20:58:02.677Z,95979.56
2023-05-20T21:00:31.341Z,95983.19
2023-05-20T21:02:59.973Z,95980.72
2023-05-20T21:05:29.227Z,95978.16
2023-05-20T21:07:59.369Z,95986.09
2023-05-20T21:10:29.519Z,95986.66
2023-05-20T21:13:00.384Z,95981.53
2023-05-20T21:15:28.816Z,95982.25
2023-05-20T21:17:57.196Z,95984.34
2023-05-20T21:20:25.674Z,95975.47
2023-05-20T21:22:54.093Z,95979.06
2023-05-20T21:25:22.500Z,95978.03
2023-05-20T21:27:50.876Z,95977.81
2023-05-20T21:30:24.128Z,95979.19
2023-05-20T21:32:52.651Z,95975.13
2023-05-20T21:35:21.099Z,95980.56
2023-05-20T21:37:49.950Z,95982.06
2023-05-20T21:40:18.483Z,95982.84
2023-05-20T21:42:48.850Z,95974.16
2023-05-20T21:45:17.714Z,95987.00
2023-05-20T21:47:47.501Z,95975.22
2023-05-20T21:50:15.977Z,95978.66
2023-05-20T21:52:44.489Z,95979.63
2023-05-20T21:55:16.009Z,95978.19
2023-05-20T21:57:44.407Z,95973.09
2023-05-20T22:00:15.612Z,95978.97
2023-05-20T22:02:44.351Z,95977.78
2023-05-20T22:05:15.897Z,95980.47
2023-05-20T22:07:45.525Z,95968.91
2023-05-20T22:10:17.872Z,95964.25
2023-05-20T22:12:47.533Z,95979.25
2023-05-20T22:15:16.092Z,95967.94
2023-05-20T22:17:44.764Z,95963.72
2023-05-20T22:20:16.003Z,95969.44
2023-05-20T22:22:45.367Z,95978.81
2023-05-20T22:25:14.314Z,95975.59
2023-05-20T22:27:43.485Z,95974.94
2023-05-20T22:30:12.761Z,95973.88
2023-05-20T22:32:42.356Z,95973.16
2023-05-20T22:35:14.258Z,95974.47
2023-05-20T22:37:44.411Z,95969.16
2023-05-20T22:40:14.387Z,95963.75
2023-05-20T22:42:42.805Z,95982.56
2023-05-20T22:45:11.873Z,95974.22
2023-05-20T22:47:40.517Z,95975.72
2023-05-20T22:50:09.841Z,95971.25
2023-05-20T22:52:49.567Z,95960.34
2023-05-20T22:55:18.055Z,95967.09
2023-05-20T22:57:46.536Z,95955.13
2023-05-20T23:00:20.795Z,95947.88
2023-05-20T23:02:52.441Z,95949.09
2023-05-20T23:05:21.125Z,95950.94
2023-05-20T23:07:52.974Z,95949.91
2023-05-20T23:10:21.866Z,95959.78
2023-05-20T23:12:50.254Z,95961.31
2023-05-20T23:15:19.197Z,95954.41
2023-05-20T23:17:49.436Z,95954.16
2023-05-20T23:20:22.406Z,95950.94
2023-05-20T23:22:52.406Z,95946.28
2023-05-20T23:25:20.785Z,95952.44
2023-05-20T23:27:49.317Z,95950.75
2023-05-20T23:30:18.132Z,95951.56
2023-05-20T23:32:47.387Z,95947.03
2023-05-20T23:35:18.977Z,95933.44
2023-05-20T23:37:48.356Z,95940.66
2023-05-20T23:40:18.653Z,95936.31
2023-05-20T23:42:47.113Z,95943.53
2023-05-20T23:45:16.894Z,95937.22
2023-05-20T23:47:45.824Z,95932.91
2023-05-20T23:50:15.415Z,95928.94
2023-05-20T23:52:53.853Z,95931.38
2023-05-20T23:55:23.644Z,95931.09
2023-05-20T23:57:52.000Z,95932.97
